KLM113 ENAL-ESSA
Flight info
| Callsign | KLM113 |
|---|---|
| Flight time | 1h 3m |
| Altitude | 29000 |
| Route | GIGIR DCT OKBUN DCT SUVAR DCT GEVRU DCT ELTOK |
| Aircraft | B738/L-V/N |
Departure
| Time | 2026-04-23 17:10 |
|---|---|
| Airport | Ålesund Airport (ENAL) |
Arrival
| Time | 2026-04-23 18:14 |
|---|---|
| Airport | Stockholm-Arlanda Airport (ESSA) |
| Time | Latitude | Longitude | Altitude | Speed | Heading |
|---|---|---|---|---|---|
| 2026-04-23 16:58 | 62.55898 | 6.11312 | 44 ft | 0 kts | 156° |
| 2026-04-23 17:03 | 62.55906 | 6.11304 | 44 ft | 2 kts | 156° |
| 2026-04-23 17:03 | 62.55923 | 6.11288 | 44 ft | 3 kts | 156° |
| 2026-04-23 17:04 | 62.55941 | 6.11270 | 44 ft | 3 kts | 156° |
| 2026-04-23 17:04 | 62.55960 | 6.11252 | 44 ft | 3 kts | 156° |
| 2026-04-23 17:04 | 62.55959 | 6.11253 | 44 ft | 0 kts | 156° |
| 2026-04-23 17:07 | 62.55955 | 6.11259 | 44 ft | 4 kts | 143° |
| 2026-04-23 17:07 | 62.55976 | 6.11376 | 44 ft | 16 kts | 35° |
| 2026-04-23 17:07 | 62.56059 | 6.11640 | 44 ft | 27 kts | 66° |
| 2026-04-23 17:07 | 62.56136 | 6.11995 | 44 ft | 21 kts | 60° |
| 2026-04-23 17:08 | 62.56185 | 6.12107 | 44 ft | 5 kts | 24° |
| 2026-04-23 17:08 | 62.56217 | 6.12138 | 44 ft | 5 kts | 24° |
| 2026-04-23 17:08 | 62.56246 | 6.12167 | 44 ft | 5 kts | 25° |
| 2026-04-23 17:08 | 62.56274 | 6.12195 | 44 ft | 4 kts | 25° |
| 2026-04-23 17:09 | 62.56276 | 6.12197 | 44 ft | 0 kts | 23° |
| 2026-04-23 17:09 | 62.56282 | 6.12194 | 44 ft | 2 kts | 332° |
| 2026-04-23 17:09 | 62.56284 | 6.12137 | 44 ft | 10 kts | 263° |
| 2026-04-23 17:09 | 62.56275 | 6.12085 | 44 ft | 0 kts | 242° |
| 2026-04-23 17:10 | 62.56255 | 6.11996 | 44 ft | 33 kts | 245° |
| 2026-04-23 17:10 | 62.56039 | 6.10997 | 45 ft | 111 kts | 244° |
| 2026-04-23 17:10 | 62.55621 | 6.09114 | 320 ft | 152 kts | 244° |
| 2026-04-23 17:10 | 62.55143 | 6.06991 | 1143 ft | 162 kts | 244° |
| 2026-04-23 17:11 | 62.54613 | 6.04825 | 2061 ft | 162 kts | 242° |
| 2026-04-23 17:11 | 62.54055 | 6.02627 | 2820 ft | 170 kts | 243° |
| 2026-04-23 17:11 | 62.53469 | 6.00322 | 3571 ft | 178 kts | 243° |
| 2026-04-23 17:11 | 62.52861 | 5.97986 | 4367 ft | 182 kts | 243° |
| 2026-04-23 17:12 | 62.52242 | 5.95635 | 5271 ft | 179 kts | 243° |
| 2026-04-23 17:12 | 62.51595 | 5.93194 | 5906 ft | 194 kts | 245° |
| 2026-04-23 17:12 | 62.50921 | 5.90604 | 6647 ft | 201 kts | 240° |
| 2026-04-23 17:12 | 62.49883 | 5.88452 | 7376 ft | 214 kts | 216° |
| 2026-04-23 17:13 | 62.48437 | 5.87353 | 8022 ft | 230 kts | 192° |
| 2026-04-23 17:13 | 62.46798 | 5.87606 | 8552 ft | 250 kts | 165° |
| 2026-04-23 17:13 | 62.45214 | 5.89539 | 8946 ft | 274 kts | 137° |
| 2026-04-23 17:13 | 62.44038 | 5.92925 | 9447 ft | 292 kts | 116° |
| 2026-04-23 17:14 | 62.43291 | 5.97125 | 10006 ft | 307 kts | 106° |
| 2026-04-23 17:14 | 62.42574 | 6.01540 | 10778 ft | 316 kts | 106° |
| 2026-04-23 17:14 | 62.41840 | 6.06098 | 11490 ft | 328 kts | 107° |
| 2026-04-23 17:14 | 62.41065 | 6.10880 | 11969 ft | 348 kts | 107° |
| 2026-04-23 17:15 | 62.40236 | 6.15963 | 12380 ft | 368 kts | 107° |
| 2026-04-23 17:15 | 62.39370 | 6.21253 | 12710 ft | 389 kts | 108° |
| 2026-04-23 17:15 | 62.38446 | 6.26872 | 13180 ft | 403 kts | 108° |
| 2026-04-23 17:15 | 62.37499 | 6.32608 | 13905 ft | 409 kts | 108° |
| 2026-04-23 17:16 | 62.36536 | 6.38414 | 14686 ft | 413 kts | 108° |
| 2026-04-23 17:16 | 62.35563 | 6.44252 | 15449 ft | 416 kts | 109° |
| 2026-04-23 17:16 | 62.34576 | 6.50153 | 16191 ft | 420 kts | 109° |
| 2026-04-23 17:16 | 62.33575 | 6.56112 | 16888 ft | 424 kts | 109° |
| 2026-04-23 17:17 | 62.32581 | 6.62037 | 17553 ft | 428 kts | 109° |
| 2026-04-23 17:17 | 62.31617 | 6.68150 | 18204 ft | 432 kts | 108° |
| 2026-04-23 17:17 | 62.30652 | 6.74311 | 18839 ft | 436 kts | 108° |
| 2026-04-23 17:17 | 62.29661 | 6.80506 | 19469 ft | 439 kts | 108° |
| 2026-04-23 17:18 | 62.27629 | 6.92935 | 20685 ft | 446 kts | 109° |
| 2026-04-23 17:18 | 62.26583 | 6.99241 | 21265 ft | 449 kts | 109° |
| 2026-04-23 17:18 | 62.25524 | 7.05580 | 21849 ft | 452 kts | 109° |
| 2026-04-23 17:19 | 62.24454 | 7.11953 | 22394 ft | 455 kts | 109° |
| 2026-04-23 17:19 | 62.23372 | 7.18362 | 22926 ft | 457 kts | 109° |
| 2026-04-23 17:19 | 62.22279 | 7.24809 | 23427 ft | 460 kts | 110° |
| 2026-04-23 17:19 | 62.21191 | 7.31200 | 23894 ft | 464 kts | 110° |
| 2026-04-23 17:20 | 62.20075 | 7.37732 | 24359 ft | 467 kts | 110° |
| 2026-04-23 17:20 | 62.17818 | 7.50868 | 25248 ft | 473 kts | 110° |
| 2026-04-23 17:21 | 62.15509 | 7.64209 | 25960 ft | 481 kts | 110° |
| 2026-04-23 17:21 | 62.14344 | 7.70902 | 26329 ft | 484 kts | 110° |
| 2026-04-23 17:21 | 62.11967 | 7.84491 | 27033 ft | 490 kts | 110° |
| 2026-04-23 17:22 | 62.10762 | 7.91340 | 27411 ft | 492 kts | 110° |
| 2026-04-23 17:22 | 62.08361 | 8.04915 | 28432 ft | 489 kts | 110° |
| 2026-04-23 17:23 | 62.05933 | 8.18547 | 28969 ft | 492 kts | 110° |
| 2026-04-23 17:23 | 62.04714 | 8.25357 | 29014 ft | 492 kts | 110° |
| 2026-04-23 17:24 | 62.01062 | 8.45610 | 29050 ft | 489 kts | 111° |
| 2026-04-23 17:24 | 61.97353 | 8.65960 | 29122 ft | 492 kts | 110° |
| 2026-04-23 17:25 | 61.93604 | 8.86319 | 29183 ft | 493 kts | 111° |
| 2026-04-23 17:26 | 61.88562 | 9.13371 | 29215 ft | 493 kts | 111° |
| 2026-04-23 17:27 | 61.84768 | 9.33489 | 29180 ft | 488 kts | 111° |
| 2026-04-23 17:27 | 61.82228 | 9.46835 | 29164 ft | 489 kts | 112° |
| 2026-04-23 17:28 | 61.79682 | 9.60130 | 29156 ft | 489 kts | 112° |
| 2026-04-23 17:28 | 61.77111 | 9.73459 | 29153 ft | 489 kts | 112° |
| 2026-04-23 17:29 | 61.74529 | 9.86764 | 29152 ft | 489 kts | 112° |
| 2026-04-23 17:30 | 61.71063 | 10.04474 | 29136 ft | 491 kts | 112° |
| 2026-04-23 17:30 | 61.66672 | 10.26702 | 29103 ft | 493 kts | 112° |
| 2026-04-23 17:31 | 61.64031 | 10.39954 | 29103 ft | 494 kts | 112° |
| 2026-04-23 17:31 | 61.61357 | 10.53284 | 29107 ft | 494 kts | 112° |
| 2026-04-23 17:32 | 61.58686 | 10.66511 | 29110 ft | 494 kts | 112° |
| 2026-04-23 17:32 | 61.55983 | 10.79795 | 29131 ft | 494 kts | 111° |
| 2026-04-23 17:33 | 61.53269 | 10.93075 | 29141 ft | 495 kts | 111° |
| 2026-04-23 17:33 | 61.50537 | 11.06350 | 29142 ft | 495 kts | 111° |
| 2026-04-23 17:34 | 61.47807 | 11.19525 | 29141 ft | 495 kts | 111° |
| 2026-04-23 17:35 | 61.43667 | 11.39351 | 29141 ft | 496 kts | 111° |
| 2026-04-23 17:35 | 61.39504 | 11.59094 | 29133 ft | 497 kts | 111° |
| 2026-04-23 17:36 | 61.36715 | 11.72219 | 29128 ft | 497 kts | 111° |
| 2026-04-23 17:36 | 61.33902 | 11.85380 | 29127 ft | 497 kts | 111° |
| 2026-04-23 17:37 | 61.31074 | 11.98530 | 29126 ft | 497 kts | 111° |
| 2026-04-23 17:38 | 61.26891 | 12.18315 | 29122 ft | 497 kts | 110° |
| 2026-04-23 17:38 | 61.24108 | 12.31403 | 29117 ft | 498 kts | 112° |
| 2026-04-23 17:39 | 61.21204 | 12.44512 | 29110 ft | 498 kts | 112° |
| 2026-04-23 17:39 | 61.18325 | 12.57501 | 29098 ft | 498 kts | 111° |
| 2026-04-23 17:40 | 61.15440 | 12.70572 | 29084 ft | 499 kts | 111° |
| 2026-04-23 17:40 | 61.12401 | 12.83506 | 29072 ft | 500 kts | 114° |
| 2026-04-23 17:41 | 61.09147 | 12.96240 | 29061 ft | 501 kts | 114° |
| 2026-04-23 17:41 | 61.04309 | 13.15364 | 29056 ft | 501 kts | 114° |
| 2026-04-23 17:42 | 60.99474 | 13.34437 | 29055 ft | 500 kts | 114° |
| 2026-04-23 17:43 | 60.96360 | 13.47146 | 29056 ft | 501 kts | 113° |
| 2026-04-23 17:43 | 60.93157 | 13.59927 | 29057 ft | 501 kts | 114° |
| 2026-04-23 17:44 | 60.89934 | 13.72591 | 29057 ft | 502 kts | 114° |
| 2026-04-23 17:44 | 60.85234 | 13.91226 | 29058 ft | 502 kts | 114° |
| 2026-04-23 17:45 | 60.80281 | 14.10162 | 29057 ft | 502 kts | 114° |
| 2026-04-23 17:46 | 60.75335 | 14.28956 | 29058 ft | 501 kts | 114° |
| 2026-04-23 17:46 | 60.71751 | 14.41238 | 29057 ft | 504 kts | 120° |
| 2026-04-23 17:47 | 60.68432 | 14.51067 | 29054 ft | 505 kts | 121° |
| 2026-04-23 17:48 | 60.62436 | 14.68770 | 29044 ft | 504 kts | 121° |
| 2026-04-23 17:48 | 60.58488 | 14.80490 | 29031 ft | 504 kts | 120° |
| 2026-04-23 17:49 | 60.54520 | 14.92251 | 29021 ft | 504 kts | 120° |
| 2026-04-23 17:49 | 60.50640 | 15.04134 | 29009 ft | 503 kts | 119° |
| 2026-04-23 17:50 | 60.46748 | 15.15823 | 28997 ft | 503 kts | 120° |
| 2026-04-23 17:50 | 60.40817 | 15.33369 | 28994 ft | 502 kts | 120° |
| 2026-04-23 17:51 | 60.36877 | 15.44930 | 28994 ft | 502 kts | 120° |
| 2026-04-23 17:51 | 60.32905 | 15.56519 | 28809 ft | 501 kts | 120° |
| 2026-04-23 17:52 | 60.30917 | 15.62298 | 28041 ft | 498 kts | 120° |
| 2026-04-23 17:52 | 60.26969 | 15.73730 | 26206 ft | 500 kts | 120° |
| 2026-04-23 17:52 | 60.24970 | 15.79498 | 25230 ft | 501 kts | 120° |
| 2026-04-23 17:53 | 60.21012 | 15.90877 | 23681 ft | 493 kts | 120° |
| 2026-04-23 17:53 | 60.19045 | 15.96514 | 22934 ft | 488 kts | 120° |
| 2026-04-23 17:53 | 60.17095 | 16.02086 | 22183 ft | 484 kts | 119° |
| 2026-04-23 17:54 | 60.15168 | 16.07582 | 21393 ft | 480 kts | 119° |
| 2026-04-23 17:54 | 60.13247 | 16.13047 | 20634 ft | 476 kts | 120° |
| 2026-04-23 17:54 | 60.09471 | 16.23752 | 19151 ft | 468 kts | 120° |
| 2026-04-23 17:55 | 60.05734 | 16.34300 | 17685 ft | 459 kts | 120° |
| 2026-04-23 17:55 | 60.03891 | 16.39481 | 16959 ft | 455 kts | 120° |
| 2026-04-23 17:55 | 60.02065 | 16.44613 | 16238 ft | 451 kts | 120° |
| 2026-04-23 17:56 | 60.00268 | 16.49707 | 15520 ft | 445 kts | 119° |
| 2026-04-23 17:56 | 59.96752 | 16.59696 | 14105 ft | 437 kts | 121° |
| 2026-04-23 17:56 | 59.94985 | 16.64595 | 13404 ft | 433 kts | 121° |
| 2026-04-23 17:57 | 59.93224 | 16.69451 | 12700 ft | 429 kts | 121° |
| 2026-04-23 17:57 | 59.91479 | 16.74244 | 12009 ft | 424 kts | 121° |
| 2026-04-23 17:57 | 59.88081 | 16.83567 | 11342 ft | 403 kts | 121° |
| 2026-04-23 17:58 | 59.86361 | 16.87861 | 11200 ft | 393 kts | 130° |
| 2026-04-23 17:58 | 59.84237 | 16.91221 | 11126 ft | 385 kts | 143° |
| 2026-04-23 17:58 | 59.81998 | 16.93992 | 11061 ft | 374 kts | 146° |
| 2026-04-23 17:58 | 59.79803 | 16.96628 | 10856 ft | 377 kts | 146° |
| 2026-04-23 17:59 | 59.77488 | 16.99435 | 10699 ft | 391 kts | 146° |
| 2026-04-23 17:59 | 59.75225 | 17.02175 | 10593 ft | 379 kts | 146° |
| 2026-04-23 17:59 | 59.72996 | 17.04867 | 10521 ft | 367 kts | 146° |
| 2026-04-23 17:59 | 59.70838 | 17.07461 | 10300 ft | 358 kts | 146° |
| 2026-04-23 18:00 | 59.68728 | 17.09996 | 9940 ft | 355 kts | 146° |
| 2026-04-23 18:00 | 59.66622 | 17.12532 | 9582 ft | 350 kts | 146° |
| 2026-04-23 18:00 | 59.64599 | 17.14977 | 9123 ft | 332 kts | 146° |
| 2026-04-23 18:00 | 59.62677 | 17.17323 | 8782 ft | 318 kts | 146° |
| 2026-04-23 18:01 | 59.60852 | 17.19556 | 8705 ft | 307 kts | 146° |
| 2026-04-23 18:01 | 59.59059 | 17.21750 | 8637 ft | 297 kts | 146° |
| 2026-04-23 18:01 | 59.57331 | 17.23863 | 8571 ft | 286 kts | 146° |
| 2026-04-23 18:01 | 59.55668 | 17.25895 | 8506 ft | 276 kts | 146° |
| 2026-04-23 18:02 | 59.54059 | 17.27858 | 8438 ft | 266 kts | 146° |
| 2026-04-23 18:02 | 59.52521 | 17.29734 | 8302 ft | 260 kts | 146° |
| 2026-04-23 18:02 | 59.50989 | 17.31604 | 8094 ft | 257 kts | 146° |
| 2026-04-23 18:02 | 59.49473 | 17.33460 | 8052 ft | 256 kts | 146° |
| 2026-04-23 18:03 | 59.47963 | 17.35306 | 8052 ft | 254 kts | 146° |
| 2026-04-23 18:03 | 59.46457 | 17.37147 | 8027 ft | 255 kts | 146° |
| 2026-04-23 18:03 | 59.44947 | 17.38994 | 7954 ft | 254 kts | 146° |
| 2026-04-23 18:03 | 59.43451 | 17.40823 | 7747 ft | 251 kts | 146° |
| 2026-04-23 18:04 | 59.41981 | 17.42618 | 7604 ft | 245 kts | 146° |
| 2026-04-23 18:04 | 59.40557 | 17.44354 | 7398 ft | 243 kts | 146° |
| 2026-04-23 18:04 | 59.39127 | 17.46098 | 7168 ft | 241 kts | 146° |
| 2026-04-23 18:04 | 59.37711 | 17.47825 | 7052 ft | 240 kts | 146° |
| 2026-04-23 18:05 | 59.36312 | 17.49631 | 7037 ft | 239 kts | 137° |
| 2026-04-23 18:05 | 59.35382 | 17.52231 | 7012 ft | 230 kts | 107° |
| 2026-04-23 18:05 | 59.34976 | 17.55212 | 7052 ft | 225 kts | 98° |
| 2026-04-23 18:05 | 59.34660 | 17.58231 | 7046 ft | 226 kts | 96° |
| 2026-04-23 18:06 | 59.34351 | 17.61235 | 7037 ft | 228 kts | 96° |
| 2026-04-23 18:06 | 59.34031 | 17.64284 | 7028 ft | 228 kts | 96° |
| 2026-04-23 18:06 | 59.33707 | 17.67321 | 7021 ft | 227 kts | 96° |
| 2026-04-23 18:06 | 59.33378 | 17.70351 | 7013 ft | 227 kts | 96° |
| 2026-04-23 18:07 | 59.33052 | 17.73323 | 6990 ft | 224 kts | 96° |
| 2026-04-23 18:07 | 59.32933 | 17.76284 | 6729 ft | 214 kts | 73° |
| 2026-04-23 18:07 | 59.33586 | 17.78778 | 6441 ft | 203 kts | 44° |
| 2026-04-23 18:07 | 59.34604 | 17.80665 | 6204 ft | 201 kts | 37° |
| 2026-04-23 18:08 | 59.35308 | 17.81845 | 6031 ft | 200 kts | 36° |
| 2026-04-23 18:08 | 59.36736 | 17.84199 | 5699 ft | 200 kts | 36° |
| 2026-04-23 18:08 | 59.37803 | 17.85927 | 5465 ft | 198 kts | 33° |
| 2026-04-23 18:08 | 59.39033 | 17.86955 | 5195 ft | 195 kts | 9° |
| 2026-04-23 18:09 | 59.40376 | 17.87311 | 4938 ft | 194 kts | 6° |
| 2026-04-23 18:09 | 59.41716 | 17.87654 | 4694 ft | 194 kts | 7° |
| 2026-04-23 18:09 | 59.43050 | 17.88063 | 4472 ft | 191 kts | 8° |
| 2026-04-23 18:09 | 59.44328 | 17.88489 | 4333 ft | 184 kts | 9° |
| 2026-04-23 18:10 | 59.45576 | 17.88923 | 4172 ft | 180 kts | 9° |
| 2026-04-23 18:10 | 59.46829 | 17.89366 | 3687 ft | 186 kts | 9° |
| 2026-04-23 18:10 | 59.48132 | 17.89833 | 3063 ft | 192 kts | 9° |
| 2026-04-23 18:10 | 59.49425 | 17.90297 | 2742 ft | 182 kts | 10° |
| 2026-04-23 18:11 | 59.50644 | 17.90737 | 2506 ft | 178 kts | 10° |
| 2026-04-23 18:11 | 59.51840 | 17.91169 | 2278 ft | 171 kts | 10° |
| 2026-04-23 18:11 | 59.52997 | 17.91587 | 2048 ft | 166 kts | 10° |
| 2026-04-23 18:11 | 59.54125 | 17.91995 | 1832 ft | 161 kts | 9° |
| 2026-04-23 18:12 | 59.55211 | 17.92389 | 1624 ft | 155 kts | 9° |
| 2026-04-23 18:12 | 59.56238 | 17.92761 | 1419 ft | 147 kts | 9° |
| 2026-04-23 18:12 | 59.57215 | 17.93115 | 1216 ft | 138 kts | 9° |
| 2026-04-23 18:12 | 59.58127 | 17.93446 | 1041 ft | 130 kts | 9° |
| 2026-04-23 18:13 | 59.59007 | 17.93765 | 928 ft | 127 kts | 8° |
| 2026-04-23 18:13 | 59.59881 | 17.94077 | 790 ft | 130 kts | 8° |
| 2026-04-23 18:13 | 59.60787 | 17.94400 | 563 ft | 133 kts | 8° |
| 2026-04-23 18:13 | 59.61699 | 17.94743 | 348 ft | 132 kts | 8° |
| 2026-04-23 18:14 | 59.62592 | 17.95061 | 192 ft | 132 kts | 8° |
| 2026-04-23 18:14 | 59.63437 | 17.95362 | 146 ft | 104 kts | 10° |
| 2026-04-23 18:14 | 59.63982 | 17.95558 | 145 ft | 46 kts | 359° |
| 2026-04-23 18:14 | 59.64237 | 17.95453 | 145 ft | 36 kts | 340° |
| 2026-04-23 18:15 | 59.64376 | 17.95352 | 145 ft | 16 kts | 340° |
| 2026-04-23 18:15 | 59.64491 | 17.95338 | 145 ft | 20 kts | 11° |
| 2026-04-23 18:15 | 59.64551 | 17.95306 | 145 ft | 8 kts | 272° |
| 2026-04-23 18:15 | 59.64522 | 17.95208 | 145 ft | 8 kts | 234° |
| 2026-04-23 18:16 | 59.64482 | 17.95099 | 145 ft | 14 kts | 234° |
| 2026-04-23 18:16 | 59.64434 | 17.94920 | 145 ft | 14 kts | 246° |
| 2026-04-23 18:16 | 59.64396 | 17.94744 | 145 ft | 14 kts | 247° |
| 2026-04-23 18:17 | 59.64254 | 17.94308 | 145 ft | 31 kts | 238° |
| 2026-04-23 18:17 | 59.64131 | 17.93885 | 145 ft | 37 kts | 244° |
| 2026-04-23 18:17 | 59.63983 | 17.93454 | 145 ft | 22 kts | 253° |
| 2026-04-23 18:17 | 59.63978 | 17.93350 | 145 ft | 1 kts | 269° |
| 2026-04-23 18:18 | 59.63993 | 17.93233 | 145 ft | 20 kts | 298° |
| 2026-04-23 18:18 | 59.64064 | 17.92980 | 145 ft | 22 kts | 299° |
| 2026-04-23 18:18 | 59.64159 | 17.92848 | 145 ft | 19 kts | 21° |
| 2026-04-23 18:18 | 59.64243 | 17.92816 | 145 ft | 14 kts | 320° |
| 2026-04-23 18:19 | 59.64311 | 17.92851 | 145 ft | 11 kts | 36° |